Terminal Aerodrome Forecast
Issued by NWS

Home | Current Version | Previous Version | Graphics & Text | Print | Product List | Glossary On
Versions: 1 2 3 4 5 6 7 8 9 10 11 12 13 14 15 16 17 18 19 20
000
FTUS43 KBIS 151130
TAFDIK
TAF
KDIK 151130Z 1512/1612 32012KT P6SM OVC015
     FM151500 33007KT P6SM SCT015
     FM151900 VRB03KT P6SM SCT250
     FM160500 13015G23KT P6SM BKN250=

USA.gov is the U.S. government's official web portal to all federal, state and local government web resources and services.